createdAt,value
2018-08-20T00:01:37.596Z,4.53
2018-08-20T00:04:09.812Z,4.80
2018-08-20T00:06:53.191Z,4.73
2018-08-20T00:09:30.800Z,4.67
2018-08-20T00:11:59.614Z,5.13
2018-08-20T00:14:41.501Z,4.20
2018-08-20T00:17:10.385Z,5.53
2018-08-20T00:19:41.068Z,5.00
2018-08-20T00:22:10.368Z,5.40
2018-08-20T00:24:39.188Z,5.47
2018-08-20T00:27:08.019Z,4.77
2018-08-20T00:29:38.158Z,4.90
2018-08-20T00:32:07.033Z,4.57
2018-08-20T00:34:35.825Z,5.47
2018-08-20T00:37:04.618Z,4.80
2018-08-20T00:39:33.405Z,5.73
2018-08-20T00:42:02.252Z,4.50
2018-08-20T00:44:31.038Z,4.40
2018-08-20T00:46:59.880Z,4.33
2018-08-20T00:49:28.648Z,5.33
2018-08-20T00:51:57.428Z,4.63
2018-08-20T00:54:26.251Z,5.13
2018-08-20T00:56:55.083Z,4.70
2018-08-20T00:59:23.858Z,4.43
2018-08-20T01:01:52.649Z,5.00
2018-08-20T01:04:21.443Z,5.07
2018-08-20T01:06:50.232Z,4.33
2018-08-20T01:09:19.028Z,4.40
2018-08-20T01:11:47.819Z,4.80
2018-08-20T01:14:16.621Z,4.77
2018-08-20T01:16:45.538Z,5.80
2018-08-20T01:19:14.296Z,4.97
2018-08-20T01:21:43.061Z,5.97
2018-08-20T01:24:11.917Z,5.17
2018-08-20T01:26:40.739Z,4.97
2018-08-20T01:29:09.598Z,4.90
2018-08-20T01:31:38.386Z,6.37
2018-08-20T01:34:07.176Z,5.87
2018-08-20T01:36:36.020Z,5.10
2018-08-20T01:39:06.025Z,6.00
2018-08-20T01:41:34.801Z,5.90
2018-08-20T01:44:03.653Z,6.20
2018-08-20T01:46:32.500Z,6.10
2018-08-20T01:49:01.271Z,6.87
2018-08-20T01:51:30.053Z,6.80
2018-08-20T01:53:58.870Z,7.20
2018-08-20T01:56:27.642Z,7.67
2018-08-20T01:58:56.492Z,6.33
2018-08-20T02:01:25.294Z,6.63
2018-08-20T02:03:54.377Z,8.30
2018-08-20T02:06:23.784Z,8.00
2018-08-20T02:08:52.664Z,7.60
2018-08-20T02:11:21.578Z,8.60
2018-08-20T02:13:50.409Z,7.20
2018-08-20T02:16:19.259Z,7.27
2018-08-20T02:18:48.229Z,6.73
2018-08-20T02:21:16.988Z,6.80
2018-08-20T02:23:45.937Z,8.03
2018-08-20T02:26:14.837Z,7.20
2018-08-20T02:28:43.629Z,8.10
2018-08-20T02:31:12.485Z,6.93
2018-08-20T02:33:41.308Z,7.57
2018-08-20T02:36:10.161Z,7.63
2018-08-20T02:38:39.659Z,7.57
2018-08-20T02:41:08.549Z,8.37
2018-08-20T02:43:37.406Z,7.20
2018-08-20T02:46:12.867Z,7.90
2018-08-20T02:48:41.851Z,8.03
2018-08-20T02:51:10.712Z,8.43
2018-08-20T02:53:39.507Z,7.97
2018-08-20T02:56:08.324Z,8.73
2018-08-20T02:58:37.115Z,8.10
2018-08-20T03:01:06.172Z,7.73
2018-08-20T03:03:35.069Z,8.60
2018-08-20T03:06:03.866Z,10.13
2018-08-20T03:08:32.681Z,8.63
2018-08-20T03:11:01.469Z,9.00
2018-08-20T03:13:30.282Z,9.13
2018-08-20T03:15:59.152Z,8.93
2018-08-20T03:18:28.008Z,7.83
2018-08-20T03:20:56.850Z,9.30
2018-08-20T03:23:25.657Z,9.60
2018-08-20T03:25:54.602Z,9.50
2018-08-20T03:28:23.403Z,9.93
2018-08-20T03:30:52.248Z,9.07
2018-08-20T03:33:21.076Z,10.37
2018-08-20T03:35:49.899Z,8.47
2018-08-20T03:38:18.768Z,8.30
2018-08-20T03:40:47.569Z,8.20
2018-08-20T03:43:17.035Z,8.57
2018-08-20T03:45:45.829Z,8.40
2018-08-20T03:48:14.677Z,9.03
2018-08-20T03:50:45.478Z,9.30
2018-08-20T03:53:14.339Z,10.40
2018-08-20T03:55:43.193Z,8.40
2018-08-20T03:58:12.028Z,9.90
2018-08-20T04:00:41.007Z,8.60
2018-08-20T04:03:09.938Z,10.23
2018-08-20T04:05:38.708Z,9.67
2018-08-20T04:08:07.865Z,10.30
2018-08-20T04:10:37.484Z,10.23
2018-08-20T04:13:11.708Z,9.97
2018-08-20T04:15:40.570Z,10.23
2018-08-20T04:18:09.559Z,10.57
2018-08-20T04:20:38.426Z,9.50
2018-08-20T04:23:07.326Z,9.30
2018-08-20T04:25:36.558Z,11.07
2018-08-20T04:28:05.495Z,9.63
2018-08-20T04:30:34.363Z,10.57
2018-08-20T04:33:03.153Z,10.73
2018-08-20T04:35:32.067Z,10.93
2018-08-20T04:38:00.874Z,10.50
2018-08-20T04:40:29.874Z,11.27
2018-08-20T04:42:58.699Z,9.10
2018-08-20T04:45:27.515Z,11.40
2018-08-20T04:47:56.297Z,11.37
2018-08-20T04:50:25.122Z,11.37
2018-08-20T04:52:54.181Z,10.67
2018-08-20T04:55:22.962Z,10.60
2018-08-20T04:57:51.810Z,10.60
2018-08-20T05:00:21.565Z,10.20
2018-08-20T05:02:50.408Z,10.90
2018-08-20T05:05:19.172Z,12.10
2018-08-20T05:07:47.987Z,9.80
2018-08-20T05:10:16.869Z,12.03
2018-08-20T05:12:45.675Z,11.13
2018-08-20T05:15:14.778Z,10.87
2018-08-20T05:17:43.684Z,9.40
2018-08-20T05:20:12.565Z,11.30
2018-08-20T05:22:41.378Z,12.10
2018-08-20T05:25:10.268Z,11.00
2018-08-20T05:27:39.092Z,9.63
2018-08-20T05:30:08.634Z,11.67
2018-08-20T05:32:37.653Z,11.70
2018-08-20T05:35:06.990Z,11.67
2018-08-20T05:37:36.113Z,10.97
2018-08-20T05:40:04.989Z,12.00
2018-08-20T05:42:33.805Z,12.77
2018-08-20T05:45:02.748Z,12.67
2018-08-20T05:47:31.507Z,12.10
2018-08-20T05:50:00.362Z,12.17
2018-08-20T05:52:29.217Z,12.00
2018-08-20T05:54:58.028Z,11.80
2018-08-20T05:57:26.805Z,11.67
2018-08-20T05:59:55.677Z,11.00
2018-08-20T06:02:24.572Z,13.00
2018-08-20T06:04:53.365Z,12.70
2018-08-20T06:07:22.235Z,11.50
2018-08-20T06:09:51.210Z,11.30
2018-08-20T06:12:20.049Z,12.30
2018-08-20T06:14:48.853Z,11.70
2018-08-20T06:17:17.676Z,11.37
2018-08-20T06:19:46.455Z,11.50
2018-08-20T06:22:15.340Z,10.73
2018-08-20T06:24:44.128Z,10.80
2018-08-20T06:27:13.021Z,10.43
2018-08-20T06:29:41.832Z,11.20
2018-08-20T06:32:10.682Z,10.70
2018-08-20T06:34:39.689Z,10.70
2018-08-20T06:37:08.574Z,12.20
2018-08-20T06:39:37.544Z,12.43
2018-08-20T06:42:06.496Z,11.50
2018-08-20T06:44:35.293Z,12.80
2018-08-20T06:47:04.182Z,10.23
2018-08-20T06:49:32.987Z,11.50
2018-08-20T06:52:01.783Z,10.40
2018-08-20T06:54:30.613Z,9.50
2018-08-20T06:56:59.622Z,10.23
2018-08-20T06:59:28.405Z,10.57
2018-08-20T07:01:57.266Z,11.33
2018-08-20T07:04:26.108Z,9.60
2018-08-20T07:06:54.890Z,11.80
2018-08-20T07:09:23.655Z,11.33
2018-08-20T07:11:52.631Z,10.77
2018-08-20T07:14:21.463Z,10.37
2018-08-20T07:16:50.245Z,11.80
2018-08-20T07:19:19.111Z,10.60
2018-08-20T07:21:47.958Z,10.60
2018-08-20T07:24:16.746Z,10.13
2018-08-20T07:26:45.643Z,8.40
2018-08-20T07:29:20.709Z,8.97
2018-08-20T07:31:49.701Z,9.17
2018-08-20T07:34:18.561Z,8.27
2018-08-20T07:36:47.322Z,7.30
2018-08-20T07:39:16.161Z,9.30
2018-08-20T07:41:44.933Z,7.63
2018-08-20T07:44:13.750Z,8.90
2018-08-20T07:46:42.557Z,8.00
2018-08-20T07:49:15.575Z,8.13
2018-08-20T07:51:44.395Z,8.33
2018-08-20T07:54:13.245Z,7.80
2018-08-20T07:56:42.109Z,8.27
2018-08-20T07:59:10.913Z,6.40
2018-08-20T08:01:39.687Z,8.10
2018-08-20T08:04:08.513Z,7.37
2018-08-20T08:06:37.420Z,8.03
2018-08-20T08:09:08.220Z,6.57
2018-08-20T08:11:37.113Z,7.40
2018-08-20T08:14:06.956Z,5.77
2018-08-20T08:16:37.389Z,6.20
2018-08-20T08:19:06.248Z,7.00
2018-08-20T08:21:35.074Z,6.43
2018-08-20T08:24:04.078Z,4.87
2018-08-20T08:26:32.952Z,3.50
2018-08-20T08:29:01.799Z,4.00
2018-08-20T08:31:30.553Z,4.00
2018-08-20T08:33:59.392Z,3.73
2018-08-20T08:36:28.199Z,3.17
2018-08-20T08:38:56.993Z,3.67
2018-08-20T08:41:25.869Z,3.27
2018-08-20T08:43:54.680Z,3.13
2018-08-20T08:46:23.456Z,3.03
2018-08-20T08:48:52.522Z,3.10
2018-08-20T08:51:21.308Z,3.73
2018-08-20T08:53:50.175Z,3.23
2018-08-20T08:56:18.984Z,3.63
2018-08-20T08:58:47.789Z,2.97
2018-08-20T09:01:16.846Z,3.53
2018-08-20T09:03:45.610Z,2.93
2018-08-20T09:06:14.442Z,3.20
2018-08-20T09:08:43.267Z,2.90
2018-08-20T09:11:12.249Z,2.60
2018-08-20T09:13:41.152Z,3.07
2018-08-20T09:16:09.931Z,3.07
2018-08-20T09:18:38.723Z,2.83
2018-08-20T09:21:07.598Z,2.47
2018-08-20T09:23:36.395Z,2.23
2018-08-20T09:26:05.203Z,1.33
2018-08-20T09:28:34.104Z,1.27
2018-08-20T09:31:02.913Z,1.43
2018-08-20T09:33:32.005Z,1.50
2018-08-20T09:36:00.793Z,1.13
2018-08-20T09:38:29.600Z,1.10
2018-08-20T09:40:58.437Z,1.10
2018-08-20T09:43:27.244Z,1.03
2018-08-20T09:45:56.073Z,1.10
2018-08-20T09:48:24.864Z,1.00
2018-08-20T09:50:53.705Z,0.67
2018-08-20T09:53:22.568Z,0.90
2018-08-20T09:55:51.405Z,0.90
2018-08-20T09:58:20.209Z,0.70
2018-08-20T10:00:49.087Z,1.30
2018-08-20T10:03:17.868Z,1.20
2018-08-20T10:05:46.693Z,1.00
2018-08-20T10:08:15.584Z,0.87
2018-08-20T10:10:44.400Z,0.63
2018-08-20T10:13:13.247Z,0.90
2018-08-20T10:15:42.032Z,0.63
2018-08-20T10:18:10.889Z,0.70
2018-08-20T10:20:39.710Z,0.90
2018-08-20T10:23:08.858Z,1.30
2018-08-20T10:25:37.682Z,0.70
2018-08-20T10:28:06.566Z,0.77
2018-08-20T10:30:35.436Z,1.00
2018-08-20T10:33:04.288Z,0.60
2018-08-20T10:35:33.124Z,0.70
2018-08-20T10:38:01.951Z,0.70
2018-08-20T10:40:30.722Z,0.60
2018-08-20T10:43:00.123Z,0.60
2018-08-20T10:45:34.321Z,0.63
2018-08-20T10:48:03.147Z,0.60
2018-08-20T10:50:31.931Z,0.53
2018-08-20T10:53:00.714Z,0.50
2018-08-20T10:55:29.569Z,0.57
2018-08-20T10:57:58.427Z,0.50
2018-08-20T11:00:27.248Z,0.70
2018-08-20T11:02:56.033Z,0.67
2018-08-20T11:05:24.847Z,0.50
2018-08-20T11:07:53.673Z,0.67
2018-08-20T11:10:22.570Z,0.60
2018-08-20T11:12:51.388Z,0.77
2018-08-20T11:15:20.208Z,0.80
2018-08-20T11:17:49.035Z,0.90
2018-08-20T11:20:17.937Z,0.70
2018-08-20T11:22:46.753Z,0.70
2018-08-20T11:25:15.574Z,0.60
2018-08-20T11:27:44.399Z,0.40
2018-08-20T11:30:14.492Z,0.40
2018-08-20T11:32:43.361Z,0.60
2018-08-20T11:35:12.568Z,0.60
2018-08-20T11:37:41.568Z,0.60
2018-08-20T11:40:10.489Z,0.50
2018-08-20T11:42:39.369Z,0.40
2018-08-20T11:45:11.357Z,0.50
2018-08-20T11:47:40.193Z,0.97
2018-08-20T11:50:09.682Z,0.50
2018-08-20T11:52:39.310Z,0.53
2018-08-20T11:55:08.233Z,0.40
2018-08-20T11:57:37.288Z,0.60
2018-08-20T12:00:09.199Z,0.57
2018-08-20T12:02:38.042Z,0.63
2018-08-20T12:05:07.890Z,0.37
2018-08-20T12:07:40.592Z,0.40
2018-08-20T12:10:10.296Z,0.40
2018-08-20T12:12:39.882Z,0.50
2018-08-20T12:15:11.034Z,0.47
2018-08-20T12:17:40.321Z,0.30
2018-08-20T12:20:10.168Z,0.60
2018-08-20T12:22:39.916Z,0.50
2018-08-20T12:25:12.446Z,0.37
2018-08-20T12:27:41.292Z,0.30
2018-08-20T12:30:12.116Z,0.40
2018-08-20T12:32:41.028Z,0.40
2018-08-20T12:35:10.410Z,0.40
2018-08-20T12:37:41.005Z,0.40
2018-08-20T12:40:09.897Z,0.40
2018-08-20T12:42:39.621Z,0.57
2018-08-20T12:45:09.042Z,0.40
2018-08-20T12:47:40.288Z,0.40
2018-08-20T12:50:09.954Z,0.40
2018-08-20T12:52:38.749Z,0.40
2018-08-20T12:55:10.081Z,0.43
2018-08-20T12:57:51.005Z,0.40
2018-08-20T13:00:30.262Z,0.50
2018-08-20T13:02:59.529Z,0.80
2018-08-20T13:05:28.409Z,0.40
2018-08-20T13:07:57.177Z,0.70
2018-08-20T13:10:26.005Z,0.60
2018-08-20T13:12:54.811Z,0.60
2018-08-20T13:15:23.595Z,0.77
2018-08-20T13:17:52.363Z,0.50
2018-08-20T13:20:21.172Z,0.80
2018-08-20T13:22:50.028Z,0.70
2018-08-20T13:25:18.907Z,0.70
2018-08-20T13:27:47.743Z,0.70
2018-08-20T13:30:16.657Z,0.60
2018-08-20T13:32:45.500Z,0.60
2018-08-20T13:35:14.400Z,0.60
2018-08-20T13:37:43.444Z,0.50
2018-08-20T13:40:12.284Z,0.50
2018-08-20T13:42:41.155Z,0.67
2018-08-20T13:45:09.953Z,0.40
2018-08-20T13:47:38.790Z,0.90
2018-08-20T13:50:13.248Z,0.60
2018-08-20T13:52:43.379Z,0.50
2018-08-20T13:55:12.240Z,0.70
2018-08-20T13:57:45.869Z,0.50
2018-08-20T14:00:16.336Z,0.50
2018-08-20T14:02:45.414Z,0.40
2018-08-20T14:05:15.211Z,0.50
2018-08-20T14:07:44.056Z,0.50
2018-08-20T14:10:13.409Z,0.77
2018-08-20T14:12:42.729Z,0.60
2018-08-20T14:15:12.756Z,0.60
2018-08-20T14:17:42.509Z,0.50
2018-08-20T14:20:13.451Z,0.50
2018-08-20T14:22:43.173Z,0.70
2018-08-20T14:25:12.127Z,0.50
2018-08-20T14:27:40.929Z,0.50
2018-08-20T14:30:13.398Z,0.70
2018-08-20T14:32:42.671Z,0.60
2018-08-20T14:35:11.810Z,0.60
2018-08-20T14:37:41.113Z,0.70
2018-08-20T14:40:13.462Z,0.60
2018-08-20T14:42:42.573Z,0.70
2018-08-20T14:45:13.162Z,0.70
2018-08-20T14:47:43.099Z,0.73
2018-08-20T14:50:15.025Z,0.70
2018-08-20T14:52:44.072Z,2.13
2018-08-20T14:55:13.551Z,0.70
2018-08-20T14:57:42.369Z,0.77
2018-08-20T15:00:13.421Z,0.97
2018-08-20T15:02:42.256Z,0.70
2018-08-20T15:05:11.078Z,1.00
2018-08-20T15:07:39.841Z,0.97
2018-08-20T15:10:09.586Z,0.90
2018-08-20T15:12:38.392Z,0.77
2018-08-20T15:15:08.424Z,1.00
2018-08-20T15:17:37.105Z,1.00
2018-08-20T15:20:07.310Z,0.97
2018-08-20T15:22:36.138Z,1.00
2018-08-20T15:25:05.505Z,1.13
2018-08-20T15:30:10.901Z,0.87
2018-08-20T15:32:39.768Z,0.50
2018-08-20T15:35:08.676Z,0.50
2018-08-20T15:37:37.469Z,0.60
2018-08-20T15:40:06.452Z,0.40
2018-08-20T15:42:35.335Z,0.50
2018-08-20T15:45:04.238Z,0.50
2018-08-20T15:47:33.111Z,0.50
2018-08-20T15:50:01.893Z,0.50
2018-08-20T15:52:30.682Z,0.40
2018-08-20T15:54:59.463Z,0.40
2018-08-20T15:57:28.317Z,0.30
2018-08-20T15:59:57.113Z,0.40
2018-08-20T16:02:28.292Z,0.40
2018-08-20T16:04:57.109Z,0.37
2018-08-20T16:07:34.015Z,0.40
2018-08-20T16:10:02.951Z,0.50
2018-08-20T16:12:32.506Z,0.43
2018-08-20T16:15:01.991Z,0.50
2018-08-20T16:17:31.045Z,0.40
2018-08-20T16:20:00.303Z,0.40
2018-08-20T16:22:29.710Z,0.50
2018-08-20T16:24:58.618Z,0.50
2018-08-20T16:27:27.487Z,0.67
2018-08-20T16:30:14.465Z,0.73
2018-08-20T16:32:44.522Z,0.73
2018-08-20T16:35:14.630Z,0.60
2018-08-20T16:37:44.641Z,0.63
2018-08-20T16:40:13.565Z,0.60
2018-08-20T16:42:44.528Z,0.90
2018-08-20T16:45:13.661Z,0.80
2018-08-20T16:47:42.693Z,0.80
2018-08-20T16:50:13.032Z,0.90
2018-08-20T16:52:42.808Z,0.80
2018-08-20T16:55:11.750Z,0.80
2018-08-20T16:57:41.037Z,0.60
2018-08-20T17:00:13.069Z,0.43
2018-08-20T17:02:43.301Z,0.93
2018-08-20T17:05:13.513Z,0.60
2018-08-20T17:07:42.329Z,0.87
2018-08-20T17:10:13.870Z,0.60
2018-08-20T17:12:43.444Z,0.90
2018-08-20T17:15:16.481Z,0.80
2018-08-20T17:17:45.332Z,0.83
2018-08-20T17:20:14.163Z,0.60
2018-08-20T17:22:43.484Z,0.57
2018-08-20T17:25:13.158Z,0.73
2018-08-20T17:27:47.749Z,0.80
2018-08-20T17:30:16.639Z,0.70
2018-08-20T17:32:52.438Z,1.30
2018-08-20T17:35:21.740Z,1.40
2018-08-20T17:37:58.115Z,0.80
2018-08-20T17:40:27.547Z,0.63
2018-08-20T17:42:56.848Z,0.67
2018-08-20T17:45:25.944Z,0.80
2018-08-20T17:47:54.871Z,0.90
2018-08-20T17:50:47.376Z,0.57
2018-08-20T17:53:16.977Z,0.73
2018-08-20T17:55:46.572Z,0.73
2018-08-20T17:58:18.389Z,0.70
2018-08-20T18:00:53.674Z,0.60
2018-08-20T18:03:28.734Z,0.77
2018-08-20T18:06:02.409Z,0.57
2018-08-20T18:08:32.293Z,1.10
2018-08-20T18:11:01.532Z,0.73
2018-08-20T18:13:42.598Z,0.90
2018-08-20T18:16:13.714Z,1.40
2018-08-20T18:18:44.295Z,0.70
2018-08-20T18:21:13.248Z,0.73
2018-08-20T18:23:42.288Z,0.40
2018-08-20T18:26:11.169Z,0.53
2018-08-20T18:28:46.600Z,0.70
2018-08-20T18:31:22.617Z,0.73
2018-08-20T18:33:51.486Z,0.70
2018-08-20T18:36:35.808Z,0.70
2018-08-20T18:39:13.699Z,0.60
2018-08-20T18:42:16.062Z,0.70
2018-08-20T18:44:46.188Z,0.50
2018-08-20T18:47:16.207Z,0.60
2018-08-20T18:49:52.241Z,0.60
2018-08-20T18:52:22.352Z,0.70
2018-08-20T18:54:53.397Z,1.30
2018-08-20T18:57:32.368Z,0.70
2018-08-20T19:00:03.173Z,0.70
2018-08-20T19:02:37.607Z,0.60
2018-08-20T19:05:08.819Z,0.70
2018-08-20T19:07:37.785Z,0.90
2018-08-20T19:10:09.453Z,0.83
2018-08-20T19:12:38.291Z,0.80
2018-08-20T19:15:22.441Z,0.80
2018-08-20T19:17:51.340Z,0.70
2018-08-20T19:20:20.447Z,1.10
2018-08-20T19:22:49.261Z,0.80
2018-08-20T19:25:19.593Z,1.17
2018-08-20T19:27:49.031Z,1.23
2018-08-20T19:30:25.990Z,1.10
2018-08-20T19:32:57.234Z,1.10
2018-08-20T19:35:28.889Z,0.80
2018-08-20T19:37:57.789Z,0.80
2018-08-20T19:40:27.807Z,0.70
2018-08-20T19:42:58.927Z,1.30
2018-08-20T19:45:31.939Z,0.80
2018-08-20T19:48:02.258Z,0.90
2018-08-20T19:50:33.400Z,0.90
2018-08-20T19:53:20.225Z,0.80
2018-08-20T19:55:51.701Z,0.77
2018-08-20T19:58:25.655Z,0.73
2018-08-20T20:01:05.734Z,1.10
2018-08-20T20:03:35.750Z,1.00
2018-08-20T20:06:05.227Z,0.73
2018-08-20T20:08:34.140Z,0.73
2018-08-20T20:11:05.105Z,0.87
2018-08-20T20:13:34.967Z,1.27
2018-08-20T20:16:03.752Z,0.73
2018-08-20T20:18:33.193Z,0.97
2018-08-20T20:21:02.087Z,0.90
2018-08-20T20:23:32.428Z,0.90
2018-08-20T20:26:03.414Z,1.20
2018-08-20T20:28:32.646Z,1.10
2018-08-20T20:31:03.878Z,1.10
2018-08-20T20:33:33.505Z,1.50
2018-08-20T20:36:04.880Z,1.50
2018-08-20T20:38:33.842Z,1.50
2018-08-20T20:41:05.416Z,1.47
2018-08-20T20:43:39.265Z,1.50
2018-08-20T20:46:10.719Z,1.80
2018-08-20T20:48:41.912Z,1.97
2018-08-20T20:51:10.756Z,1.90
2018-08-20T20:53:42.718Z,2.17
2018-08-20T20:56:11.624Z,1.93
2018-08-20T20:58:41.746Z,1.83
2018-08-20T21:01:13.594Z,1.53
2018-08-20T21:03:42.565Z,1.50
2018-08-20T21:06:11.419Z,1.97
2018-08-20T21:08:44.413Z,2.37
2018-08-20T21:11:14.540Z,1.70
2018-08-20T21:13:43.888Z,1.30
2018-08-20T21:16:13.874Z,1.70
2018-08-20T21:18:47.160Z,1.70
2018-08-20T21:21:20.929Z,1.83
2018-08-20T21:23:49.975Z,2.00
2018-08-20T21:26:19.777Z,1.60
2018-08-20T21:28:49.981Z,2.37
2018-08-20T21:31:20.234Z,1.70
2018-08-20T21:33:53.414Z,1.60
2018-08-20T21:36:22.436Z,1.80
2018-08-20T21:39:05.144Z,1.50
2018-08-20T21:41:34.571Z,1.60
2018-08-20T21:44:03.439Z,1.57
2018-08-20T21:46:32.252Z,2.00
2018-08-20T21:49:01.868Z,1.80
2018-08-20T21:51:37.403Z,1.67
2018-08-20T21:54:06.656Z,2.17
2018-08-20T21:56:46.622Z,1.10
2018-08-20T21:59:17.178Z,1.30
2018-08-20T22:01:47.728Z,2.10
2018-08-20T22:04:21.875Z,1.83
2018-08-20T22:06:51.215Z,1.67
2018-08-20T22:09:21.376Z,1.70
2018-08-20T22:11:54.978Z,1.47
2018-08-20T22:14:24.033Z,2.10
2018-08-20T22:16:52.865Z,1.70
2018-08-20T22:19:21.743Z,1.47
2018-08-20T22:21:50.628Z,2.03
2018-08-20T22:24:20.450Z,2.00
2018-08-20T22:26:55.642Z,1.90
2018-08-20T22:29:24.818Z,1.53
2018-08-20T22:31:56.814Z,1.30
2018-08-20T22:34:28.233Z,1.70
2018-08-20T22:37:01.224Z,1.67
2018-08-20T22:39:30.152Z,1.70
2018-08-20T22:41:58.972Z,1.23
2018-08-20T22:44:27.829Z,1.87
2018-08-20T22:46:56.640Z,1.70
2018-08-20T22:49:25.428Z,1.93
2018-08-20T22:51:54.263Z,1.73
2018-08-20T22:54:23.150Z,2.00
2018-08-20T22:56:51.986Z,1.87
2018-08-20T22:59:20.795Z,2.00
2018-08-20T23:01:49.656Z,2.20
2018-08-20T23:04:18.472Z,1.73
2018-08-20T23:06:47.348Z,2.20
2018-08-20T23:09:28.802Z,2.30
2018-08-20T23:11:57.654Z,2.00
2018-08-20T23:14:27.044Z,2.00
2018-08-20T23:16:55.874Z,1.73
2018-08-20T23:19:24.833Z,2.43
2018-08-20T23:21:54.048Z,2.10
2018-08-20T23:24:22.854Z,1.50
2018-08-20T23:26:51.738Z,2.20
2018-08-20T23:29:20.523Z,2.73
2018-08-20T23:31:49.355Z,2.27
2018-08-20T23:34:18.189Z,2.23
2018-08-20T23:36:46.996Z,2.17
2018-08-20T23:39:17.159Z,1.90
2018-08-20T23:41:46.062Z,2.10
2018-08-20T23:44:17.034Z,2.10
2018-08-20T23:46:52.698Z,2.67
2018-08-20T23:49:29.553Z,2.73
2018-08-20T23:51:58.564Z,2.23
2018-08-20T23:54:27.366Z,2.30
2018-08-20T23:56:56.224Z,2.50
2018-08-20T23:59:25.043Z,2.53
